Terminal Aerodrome Forecast
Issued by NWS Topeka, KS

Home | Current Version | Previous Version | Graphics & Text | Print | Product List | Glossary On
Versions: 1 2 3 4 5 6 7 8 9 10 11 12 13 14 15 16 17 18 19 20
000
FTUS43 KTOP 282200 AAA
TAFTOP
TAF AMD
KTOP 282207Z 2822/0118 12007KT 6SM -SN SCT015 BKN020
     FM010100 16005KT 6SM BR BKN030
     FM010600 19005KT 2SM -SN BKN020 OVC035
     FM010800 21005KT P6SM SCT015 BKN030=

USA.gov is the U.S. government's official web portal to all federal, state and local government web resources and services.